War Admiral — WDB7881 — position and weather

sailwx.info

Track history (hours):
 
Tides and Currents Weather Stations Pressure Air Temp Water Temp Dewpoint Dewpoint Depression Visibility Wind Speed Wind Dir Waves Ship Positions

War Admiral

More information available from US FCC via Universal Licensing System and Coast Guard Vessel Documentation Center.

Last reported at 2014-Aug-01 08:33 UTC. Time now 2014-Aug-01 11:49 UTC.
Position N 34°17' W 119°38'.

Length 66 m; draft 3.7 m.

Type: Cargo ship. MMSI: 368164000.

Date/timePositionNaut miles runAvg speedWind from/ knotsBaromVisibWave heightAir tempDewpointWater temp
2014-Aug-01 08:33N 34°17' W 119°38'1211.6
2014-Aug-01 07:33N 34°19' W 119°51'16 5.2
2014-Aug-01 04:31N 34°23' W 120°10'0 0.0
2014-Aug-01 03:18N 34°23' W 120°10'0 0.1
2014-Aug-01 02:23N 34°23' W 120°10'1 0.3
2014-Aug-01 00:13N 34°23' W 120°09'2 1.6
2014-Jul-31 23:15N 34°24' W 120°08'2 2.0
2014-Jul-31 22:08N 34°23' W 120°10'2 3.2
2014-Jul-31 21:33N 34°23' W 120°12'7 0.7
2014-Jul-31 10:33N 34°23' W 120°03'2 0.4
2014-Jul-31 05:27N 34°21' W 120°03'1011.1
2014-Jul-31 04:33N 34°19' W 119°51'1111.2
2014-Jul-31 03:33N 34°16' W 119°38'2310.4
2014-Jul-31 01:23N 34°09' W 119°12'0 0.2
2014-Jul-31 00:32N 34°09' W 119°12'0 0.0
2014-Jul-30 02:05N 34°09' W 119°12'0 0.0
2014-Jul-30 00:32N 34°09' W 119°12'0 0.0
2014-Jul-29 23:33N 34°09' W 119°12'0 0.0
2014-Jul-29 22:33N 34°09' W 119°12'5 4.5
2014-Jul-29 21:33N 34°09' W 119°18'1412.2
2014-Jul-29 20:25N 34°14' W 119°33'1012.1
2014-Jul-29 19:33N 34°18' W 119°45'1212.3
2014-Jul-29 18:33N 34°21' W 119°60'8 2.5
2014-Jul-29 15:20N 34°23' W 120°09'1 0.2
2014-Jul-29 07:33N 34°23' W 120°10'5 4.5
2014-Jul-29 06:32N 34°22' W 120°16'6 5.5
2014-Jul-29 05:28N 34°23' W 120°09'0 0.4
2014-Jul-29 04:29N 34°23' W 120°09'1 1.4
2014-Jul-29 03:30N 34°23' W 120°10'7 7.1
2014-Jul-29 02:33N 34°23' W 120°02'1211.6
2014-Jul-29 01:33N 34°18' W 119°49'1211.8
2014-Jul-29 00:31N 34°15' W 119°35'19 9.8
2014-Jul-28 22:32N 34°09' W 119°12'0 0.0
2014-Jul-28 20:20N 34°09' W 119°12'0 0.1
2014-Jul-28 19:26N 34°09' W 119°12'0 0.0
2014-Jul-28 18:33N 34°09' W 119°12'0 0.0
2014-Jul-28 17:33N 34°09' W 119°12'0 0.0
2014-Jul-28 16:33N 34°09' W 119°12'0 0.0
2014-Jul-28 15:30N 34°09' W 119°12'0 0.0
2014-Jul-28 14:33N 34°09' W 119°12'0 0.0
2014-Jul-28 13:26N 34°09' W 119°12'0 0.0
2014-Jul-28 11:10N 34°09' W 119°12'0 0.0
2014-Jul-28 09:28N 34°09' W 119°12'0 0.0
2014-Jul-28 08:05N 34°09' W 119°12'0 0.0
2014-Jul-28 07:30N 34°09' W 119°12'0 0.0
2014-Jul-28 06:33N 34°09' W 119°12'0 0.0
2014-Jul-28 05:26N 34°09' W 119°12'8 3.8
2014-Jul-28 03:24N 34°10' W 119°22'1112.6
2014-Jul-28 02:33N 34°14' W 119°34'1312.8
2014-Jul-28 01:33N 34°17' W 119°49'1312.7
2014-Jul-28 00:33N 34°21' W 120°03'6 5.6
2014-Jul-27 23:33N 34°23' W 120°10'1 0.3
2014-Jul-27 19:24N 34°23' W 120°11'1 1.4
2014-Jul-27 18:27N 34°23' W 120°10'0 0.2
2014-Jul-27 17:12N 34°23' W 120°10'0 0.0
2014-Jul-27 16:30N 34°23' W 120°10'0 0.0
2014-Jul-27 15:25N 34°23' W 120°10'0 0.0
2014-Jul-27 14:32N 34°23' W 120°10'0 0.0
2014-Jul-27 13:32N 34°23' W 120°10'0 0.0
2014-Jul-27 12:29N 34°23' W 120°10'0 0.0
2014-Jul-27 11:33N 34°23' W 120°10'0 0.0
2014-Jul-27 09:31N 34°23' W 120°10'0 0.0
2014-Jul-27 08:22N 34°23' W 120°10'0 0.0
2014-Jul-27 07:33N 34°23' W 120°10'0 0.0
2014-Jul-27 06:33N 34°23' W 120°10'0 0.0
2014-Jul-27 05:33N 34°23' W 120°10'1 1.0
2014-Jul-27 04:17N 34°22' W 120°09'8 9.6
2014-Jul-27 03:27N 34°20' W 119°59'1111.8
2014-Jul-27 02:33N 34°17' W 119°47'1211.6
2014-Jul-27 01:29N 34°13' W 119°33'17 0.8
2014-Jul-26 02:28N 34°09' W 119°12'27 3.6
2014-Jul-25 19:05N 34°16' W 119°43'712.0
2014-Jul-25 18:29N 34°19' W 119°52'14 1.7
2014-Jul-25 10:06N 34°24' W 120°08'1 0.4
2014-Jul-25 06:29N 34°22' W 120°07'1 0.1
2014-Jul-24 13:28N 34°23' W 120°09'3 0.4
2014-Jul-24 07:17N 34°22' W 120°06'912.0
2014-Jul-24 06:33N 34°19' W 119°56'1211.5
2014-Jul-24 05:33N 34°16' W 119°42'26 3.1
2014-Jul-23 21:11N 34°09' W 119°12'0 0.0
2014-Jul-23 18:32N 34°09' W 119°12'1 0.1
2014-Jul-23 07:19N 34°08' W 119°13'1210.3
2014-Jul-23 06:09N 34°12' W 119°27'812.7
2014-Jul-23 05:33N 34°15' W 119°35'1312.6
2014-Jul-23 04:33N 34°18' W 119°50'1212.0
2014-Jul-23 03:33N 34°21' W 120°04'5 1.5
2014-Jul-23 00:29N 34°23' W 120°10'1 0.4
2014-Jul-22 21:20N 34°23' W 120°11'6 3.6
2014-Jul-22 19:31N 34°24' W 120°03'6 1.2
2014-Jul-22 14:32N 34°23' W 120°10'0 0.0
2014-Jul-22 12:26N 34°23' W 120°10'0 0.2
2014-Jul-22 10:15N 34°23' W 120°10'0 0.5
2014-Jul-22 09:33N 34°23' W 120°10'  
Track history (hours):
 
Tides and Currents Weather Stations Pressure Air Temp Water Temp Dewpoint Dewpoint Depression Visibility Wind Speed Wind Dir Waves Ship Positions

War Admiral

More information available from US FCC via Universal Licensing System and Coast Guard Vessel Documentation Center.

Last reported at 2014-Aug-01 08:33 UTC. Time now 2014-Aug-01 11:49 UTC.
Position N 34°17' W 119°38'.

Length 66 m; draft 3.7 m.

Type: Cargo ship. MMSI: 368164000.

Date/timePositionNaut miles runAvg speedWind from/ knotsBaromVisibWave heightAir tempDewpointWater temp
2014-Aug-01 08:33N 34°17' W 119°38'1211.6
2014-Aug-01 07:33N 34°19' W 119°51'16 5.2
2014-Aug-01 04:31N 34°23' W 120°10'0 0.0
2014-Aug-01 03:18N 34°23' W 120°10'0 0.1
2014-Aug-01 02:23N 34°23' W 120°10'1 0.3
2014-Aug-01 00:13N 34°23' W 120°09'2 1.6
2014-Jul-31 23:15N 34°24' W 120°08'2 2.0
2014-Jul-31 22:08N 34°23' W 120°10'2 3.2
2014-Jul-31 21:33N 34°23' W 120°12'7 0.7
2014-Jul-31 10:33N 34°23' W 120°03'2 0.4
2014-Jul-31 05:27N 34°21' W 120°03'1011.1
2014-Jul-31 04:33N 34°19' W 119°51'1111.2
2014-Jul-31 03:33N 34°16' W 119°38'2310.4
2014-Jul-31 01:23N 34°09' W 119°12'0 0.2
2014-Jul-31 00:32N 34°09' W 119°12'0 0.0
2014-Jul-30 02:05N 34°09' W 119°12'0 0.0
2014-Jul-30 00:32N 34°09' W 119°12'0 0.0
2014-Jul-29 23:33N 34°09' W 119°12'0 0.0
2014-Jul-29 22:33N 34°09' W 119°12'5 4.5
2014-Jul-29 21:33N 34°09' W 119°18'1412.2
2014-Jul-29 20:25N 34°14' W 119°33'1012.1
2014-Jul-29 19:33N 34°18' W 119°45'1212.3
2014-Jul-29 18:33N 34°21' W 119°60'8 2.5
2014-Jul-29 15:20N 34°23' W 120°09'1 0.2
2014-Jul-29 07:33N 34°23' W 120°10'5 4.5
2014-Jul-29 06:32N 34°22' W 120°16'6 5.5
2014-Jul-29 05:28N 34°23' W 120°09'0 0.4
2014-Jul-29 04:29N 34°23' W 120°09'1 1.4
2014-Jul-29 03:30N 34°23' W 120°10'7 7.1
2014-Jul-29 02:33N 34°23' W 120°02'1211.6
2014-Jul-29 01:33N 34°18' W 119°49'1211.8
2014-Jul-29 00:31N 34°15' W 119°35'19 9.8
2014-Jul-28 22:32N 34°09' W 119°12'0 0.0
2014-Jul-28 20:20N 34°09' W 119°12'0 0.1
2014-Jul-28 19:26N 34°09' W 119°12'0 0.0
2014-Jul-28 18:33N 34°09' W 119°12'0 0.0
2014-Jul-28 17:33N 34°09' W 119°12'0 0.0
2014-Jul-28 16:33N 34°09' W 119°12'0 0.0
2014-Jul-28 15:30N 34°09' W 119°12'0 0.0
2014-Jul-28 14:33N 34°09' W 119°12'0 0.0
2014-Jul-28 13:26N 34°09' W 119°12'0 0.0
2014-Jul-28 11:10N 34°09' W 119°12'0 0.0
2014-Jul-28 09:28N 34°09' W 119°12'0 0.0
2014-Jul-28 08:05N 34°09' W 119°12'0 0.0
2014-Jul-28 07:30N 34°09' W 119°12'0 0.0
2014-Jul-28 06:33N 34°09' W 119°12'0 0.0
2014-Jul-28 05:26N 34°09' W 119°12'8 3.8
2014-Jul-28 03:24N 34°10' W 119°22'1112.6
2014-Jul-28 02:33N 34°14' W 119°34'1312.8
2014-Jul-28 01:33N 34°17' W 119°49'1312.7
2014-Jul-28 00:33N 34°21' W 120°03'6 5.6
2014-Jul-27 23:33N 34°23' W 120°10'1 0.3
2014-Jul-27 19:24N 34°23' W 120°11'1 1.4
2014-Jul-27 18:27N 34°23' W 120°10'0 0.2
2014-Jul-27 17:12N 34°23' W 120°10'0 0.0
2014-Jul-27 16:30N 34°23' W 120°10'0 0.0
2014-Jul-27 15:25N 34°23' W 120°10'0 0.0
2014-Jul-27 14:32N 34°23' W 120°10'0 0.0
2014-Jul-27 13:32N 34°23' W 120°10'0 0.0
2014-Jul-27 12:29N 34°23' W 120°10'0 0.0
2014-Jul-27 11:33N 34°23' W 120°10'0 0.0
2014-Jul-27 09:31N 34°23' W 120°10'0 0.0
2014-Jul-27 08:22N 34°23' W 120°10'0 0.0
2014-Jul-27 07:33N 34°23' W 120°10'0 0.0
2014-Jul-27 06:33N 34°23' W 120°10'0 0.0
2014-Jul-27 05:33N 34°23' W 120°10'1 1.0
2014-Jul-27 04:17N 34°22' W 120°09'8 9.6
2014-Jul-27 03:27N 34°20' W 119°59'1111.8
2014-Jul-27 02:33N 34°17' W 119°47'1211.6
2014-Jul-27 01:29N 34°13' W 119°33'17 0.8
2014-Jul-26 02:28N 34°09' W 119°12'27 3.6
2014-Jul-25 19:05N 34°16' W 119°43'712.0
2014-Jul-25 18:29N 34°19' W 119°52'14 1.7
2014-Jul-25 10:06N 34°24' W 120°08'1 0.4
2014-Jul-25 06:29N 34°22' W 120°07'1 0.1
2014-Jul-24 13:28N 34°23' W 120°09'3 0.4
2014-Jul-24 07:17N 34°22' W 120°06'912.0
2014-Jul-24 06:33N 34°19' W 119°56'1211.5
2014-Jul-24 05:33N 34°16' W 119°42'26 3.1
2014-Jul-23 21:11N 34°09' W 119°12'0 0.0
2014-Jul-23 18:32N 34°09' W 119°12'1 0.1
2014-Jul-23 07:19N 34°08' W 119°13'1210.3
2014-Jul-23 06:09N 34°12' W 119°27'812.7
2014-Jul-23 05:33N 34°15' W 119°35'1312.6
2014-Jul-23 04:33N 34°18' W 119°50'1212.0
2014-Jul-23 03:33N 34°21' W 120°04'5 1.5
2014-Jul-23 00:29N 34°23' W 120°10'1 0.4
2014-Jul-22 21:20N 34°23' W 120°11'6 3.6
2014-Jul-22 19:31N 34°24' W 120°03'6 1.2
2014-Jul-22 14:32N 34°23' W 120°10'0 0.0
2014-Jul-22 12:26N 34°23' W 120°10'0 0.2
2014-Jul-22 10:15N 34°23' W 120°10'0 0.5
2014-Jul-22 09:33N 34°23' W 120°10'  

Dump ship's entire track history